CheckWX is a tool to help pilots better visualize weather data.  It is not intended as a substitute for an official pre-flight weather briefing.

01:49:22 UTC

A39 METAR
Ak-Chin Regional Airport
Maricopa, Arizona, USA
Current

34 mins ago

KA39 240115Z AUTO 05006KT 10SM CLR 10/01 A3029 RMK AO2
Observed
Feb-24 @ 01:15 UTC
Wind
  • 050° at 6 KTS
Visibility
10 SM
Flight Rules
VFR
Cloud Levels
  • Clear skies
Temperature
10°C / 50°F
Dewpoint
C / 34°F
Humidity
54%
Altimeter
30.29" Hg
Pressure
1025.72 hPa
Previous

54 mins ago

KA39 240055Z AUTO 04005KT 10SM CLR 11/01 A3029 RMK AO2
Observed
Feb-24 @ 00:55 UTC
Wind
  • 040° at 5 KTS
Visibility
10 SM
Flight Rules
VFR
Cloud Levels
  • Clear skies
Temperature
11°C / 52°F
Dewpoint
C / 34°F
Humidity
50%
Altimeter
30.29" Hg
Pressure
1025.72 hPa
Previous

1 hour ago

KA39 240035Z AUTO 03005KT 10SM CLR 11/00 A3030 RMK AO2
Observed
Feb-24 @ 00:35 UTC
Wind
  • 030° at 5 KTS
Visibility
10 SM
Flight Rules
VFR
Cloud Levels
  • Clear skies
Temperature
11°C / 52°F
Dewpoint
C / 32°F
Humidity
47%
Altimeter
30.3" Hg
Pressure
1026.12 hPa